kzls_bhop_temple

kzls_bhop_temple

DIF Easy LONG very-short TIPO bhop
Clasificación
# Jugador Tiempo Diferencia Ratio CP/GC Fecha
1 ruВивальди 01:04.144 100.00% 1/1 24.04.2025
2 semaxim 01:07.091 +2.948 95.61% 18/1 04.03.2025
3 rurunner 01:24.586 +20.443 75.83% 15/3 24.04.2025
4 ruBORSCH 01:38.460 +34.317 65.15% 32/5 24.04.2025
5 eetwiSted_inSide 01:42.163 +38.019 62.79% 1/1 07.02.2024
6 mkNexon 01:43.708 +39.564 61.85% 16/8 28.07.2024
7 arPollito Desplumado 01:47.072 +42.928 59.91% 3/1 16.03.2026
8 pl1312 01:48.459 +44.315 59.14% 12/3 23.05.2025
9 deDantesss 01:53.230 +49.086 56.65% 13/1 06.01.2025
10 geSmaiLa =)) 01:53.240 +49.096 56.64% 6/2 24.04.2025
11 usahful 01:53.986 +49.842 56.27% 9/3 04.01.2024
12 uacharacter development 02:05.119 +60.975 51.27% 7/6 23.05.2025
13 uaimpressive 02:07.721 +63.577 50.22% 11/4 03.01.2025
14 rsDjenson 02:22.951 +78.807 44.87% 12/6 24.02.2026
15 byicon 02:29.630 +85.486 42.87% 12/1 23.08.2024
16 eePungir 02:39.409 +95.265 40.24% 2/7 06.08.2025
17 ruWhy u smoke for? 03:34.098 +149.954 29.96% 16/15 03.05.2026
18 fiWoprock #getgood 04:07.098 +182.954 25.96% 18/37 31.08.2025
19 lvHired Gun 05:35.507 +271.363 19.12% 13/3 22.12.2024
20 deStaunte 08:38.598 +454.454 12.37% 2/2 14.11.2024
21 ruAugust 13:01.632 +717.488 8.21% 36/151 10.08.2024